KMBG

Mobridge Municipal Airport

Mobridge, South Dakota, USA
METAR KMBG 201852Z AUTO VRB03KT 10SM CLR 06/M05 A3036 RMK AO2 SLP294 T00611050 $
Observed Flight Rules
Oct-20 @ 18:52 UTC (29 minutes ago) Visual Flight Rules
Wind Visibility Clouds
Variable at 3 knots 10 miles
  • Clear skies
Temperatures Readings
Current 6°C / 43°F
Dewpoint -5°C / 23°F
Humidity 46%
Altimeter 30.36" Hg
Pressure 1029.4 hPa
Elevation 510
METAR KMBG 201852Z AUTO VRB03KT 10SM CLR 06/M05 A3036 RMK AO2 SLP294 T00611050 $
Observed Flight Rules
Oct-20 @ 18:52 UTC
(29 minutes ago)
VFR
Wind Visibility
Variable at 3 knots 10 miles
Clouds
  • Clear skies
Temperature Dewpoint
6°C / 43°F -5°C / 23°F
Humidity Altimeter Pressure
46% 30.36" Hg 1029.4 hPa